sensor_id;sensor_type;location;lat;lon;timestamp;pressure;altitude;pressure_sealevel;temperature
69186;BMP280;56298;49.246;9.410;2024-03-17T00:02:06;100219.19;;;7.29
69186;BMP280;56298;49.246;9.410;2024-03-17T00:04:31;100214.41;;;7.12
69186;BMP280;56298;49.246;9.410;2024-03-17T00:06:57;100212.13;;;6.91
69186;BMP280;56298;49.246;9.410;2024-03-17T00:09:22;100203.47;;;6.75
69186;BMP280;56298;49.246;9.410;2024-03-17T00:11:49;100218.09;;;6.79
69186;BMP280;56298;49.246;9.410;2024-03-17T00:14:15;100221.13;;;6.78
69186;BMP280;56298;49.246;9.410;2024-03-17T00:16:40;100206.81;;;6.72
69186;BMP280;56298;49.246;9.410;2024-03-17T00:19:05;100211.44;;;6.57
69186;BMP280;56298;49.246;9.410;2024-03-17T00:21:30;100210.25;;;6.64
69186;BMP280;56298;49.246;9.410;2024-03-17T00:23:56;100206.41;;;6.65
69186;BMP280;56298;49.246;9.410;2024-03-17T00:26:22;100208.31;;;6.64
69186;BMP280;56298;49.246;9.410;2024-03-17T00:28:47;100207.31;;;6.46
69186;BMP280;56298;49.246;9.410;2024-03-17T00:31:16;100202.25;;;6.39
69186;BMP280;56298;49.246;9.410;2024-03-17T00:33:41;100209.03;;;6.42
69186;BMP280;56298;49.246;9.410;2024-03-17T00:36:07;100207.00;;;6.48
69186;BMP280;56298;49.246;9.410;2024-03-17T00:38:32;100210.44;;;6.53
69186;BMP280;56298;49.246;9.410;2024-03-17T00:40:58;100206.63;;;6.54
69186;BMP280;56298;49.246;9.410;2024-03-17T00:43:23;100208.00;;;6.52
69186;BMP280;56298;49.246;9.410;2024-03-17T00:45:52;100206.63;;;6.54
69186;BMP280;56298;49.246;9.410;2024-03-17T00:48:17;100195.50;;;6.51
69186;BMP280;56298;49.246;9.410;2024-03-17T00:50:42;100202.88;;;6.50
69186;BMP280;56298;49.246;9.410;2024-03-17T00:53:10;100191.28;;;6.45
69186;BMP280;56298;49.246;9.410;2024-03-17T00:55:35;100186.31;;;6.33
69186;BMP280;56298;49.246;9.410;2024-03-17T00:58:00;100176.19;;;6.19
69186;BMP280;56298;49.246;9.410;2024-03-17T01:00:26;100181.13;;;6.03
69186;BMP280;56298;49.246;9.410;2024-03-17T01:02:51;100176.59;;;5.98
69186;BMP280;56298;49.246;9.410;2024-03-17T01:05:16;100167.41;;;6.08
69186;BMP280;56298;49.246;9.410;2024-03-17T01:07:41;100169.91;;;5.91
69186;BMP280;56298;49.246;9.410;2024-03-17T01:10:07;100159.94;;;5.86
69186;BMP280;56298;49.246;9.410;2024-03-17T01:12:34;100171.00;;;5.89
69186;BMP280;56298;49.246;9.410;2024-03-17T01:14:59;100161.00;;;5.71
69186;BMP280;56298;49.246;9.410;2024-03-17T01:17:24;100164.69;;;5.61
69186;BMP280;56298;49.246;9.410;2024-03-17T01:19:49;100161.91;;;5.66
69186;BMP280;56298;49.246;9.410;2024-03-17T01:22:16;100164.50;;;5.71
69186;BMP280;56298;49.246;9.410;2024-03-17T01:24:42;100165.38;;;5.86
69186;BMP280;56298;49.246;9.410;2024-03-17T01:27:11;100159.31;;;5.89
69186;BMP280;56298;49.246;9.410;2024-03-17T01:29:39;100157.31;;;5.95
69186;BMP280;56298;49.246;9.410;2024-03-17T01:32:05;100153.28;;;5.92
69186;BMP280;56298;49.246;9.410;2024-03-17T01:34:31;100156.59;;;5.89
69186;BMP280;56298;49.246;9.410;2024-03-17T01:36:56;100148.06;;;5.96
69186;BMP280;56298;49.246;9.410;2024-03-17T01:39:21;100142.69;;;5.91
69186;BMP280;56298;49.246;9.410;2024-03-17T01:41:46;100141.88;;;5.90
69186;BMP280;56298;49.246;9.410;2024-03-17T01:44:22;100134.50;;;5.77
69186;BMP280;56298;49.246;9.410;2024-03-17T01:46:50;100138.75;;;5.83
69186;BMP280;56298;49.246;9.410;2024-03-17T01:49:15;100141.56;;;5.78
69186;BMP280;56298;49.246;9.410;2024-03-17T01:51:41;100134.78;;;5.75
69186;BMP280;56298;49.246;9.410;2024-03-17T01:54:07;100131.56;;;5.73
69186;BMP280;56298;49.246;9.410;2024-03-17T01:56:33;100130.97;;;5.76
69186;BMP280;56298;49.246;9.410;2024-03-17T01:58:58;100130.19;;;5.56
69186;BMP280;56298;49.246;9.410;2024-03-17T02:01:24;100133.03;;;5.51
69186;BMP280;56298;49.246;9.410;2024-03-17T02:03:49;100119.13;;;5.53
69186;BMP280;56298;49.246;9.410;2024-03-17T02:06:14;100128.41;;;5.52
69186;BMP280;56298;49.246;9.410;2024-03-17T02:08:50;100130.34;;;5.65
69186;BMP280;56298;49.246;9.410;2024-03-17T02:11:30;100127.00;;;5.54
69186;BMP280;56298;49.246;9.410;2024-03-17T02:13:56;100130.97;;;5.43
69186;BMP280;56298;49.246;9.410;2024-03-17T02:16:22;100136.69;;;5.41
69186;BMP280;56298;49.246;9.410;2024-03-17T02:18:48;100129.88;;;5.44
69186;BMP280;56298;49.246;9.410;2024-03-17T02:21:14;100128.41;;;5.52
69186;BMP280;56298;49.246;9.410;2024-03-17T02:23:43;100125.41;;;5.53
69186;BMP280;56298;49.246;9.410;2024-03-17T02:26:09;100124.19;;;5.40
69186;BMP280;56298;49.246;9.410;2024-03-17T02:28:39;100133.34;;;5.30
69186;BMP280;56298;49.246;9.410;2024-03-17T02:31:06;100131.22;;;5.27
69186;BMP280;56298;49.246;9.410;2024-03-17T02:33:32;100119.59;;;5.21
69186;BMP280;56298;49.246;9.410;2024-03-17T02:35:57;100127.25;;;5.00
69186;BMP280;56298;49.246;9.410;2024-03-17T02:38:22;100118.59;;;4.79
69186;BMP280;56298;49.246;9.410;2024-03-17T02:41:06;100126.66;;;4.84
69186;BMP280;56298;49.246;9.410;2024-03-17T02:43:31;100118.69;;;4.69
69186;BMP280;56298;49.246;9.410;2024-03-17T02:45:57;100122.19;;;4.50
69186;BMP280;56298;49.246;9.410;2024-03-17T02:48:22;100108.69;;;4.45
69186;BMP280;56298;49.246;9.410;2024-03-17T02:50:48;100107.72;;;4.35
69186;BMP280;56298;49.246;9.410;2024-03-17T02:53:13;100111.47;;;4.39
69186;BMP280;56298;49.246;9.410;2024-03-17T02:55:39;100115.66;;;4.51
69186;BMP280;56298;49.246;9.410;2024-03-17T02:58:04;100112.31;;;4.59
69186;BMP280;56298;49.246;9.410;2024-03-17T03:00:29;100106.66;;;4.75
69186;BMP280;56298;49.246;9.410;2024-03-17T03:02:55;100107.56;;;4.70
69186;BMP280;56298;49.246;9.410;2024-03-17T03:05:20;100101.97;;;4.61
69186;BMP280;56298;49.246;9.410;2024-03-17T03:07:45;100104.00;;;4.50
69186;BMP280;56298;49.246;9.410;2024-03-17T03:10:10;100105.69;;;4.46
69186;BMP280;56298;49.246;9.410;2024-03-17T03:12:35;100101.88;;;4.47
69186;BMP280;56298;49.246;9.410;2024-03-17T03:15:01;100099.63;;;4.55
69186;BMP280;56298;49.246;9.410;2024-03-17T03:17:26;100101.50;;;4.54
69186;BMP280;56298;49.246;9.410;2024-03-17T03:19:52;100101.13;;;4.42
69186;BMP280;56298;49.246;9.410;2024-03-17T03:22:17;100114.13;;;4.45
69186;BMP280;56298;49.246;9.410;2024-03-17T03:24:42;100105.47;;;4.43
69186;BMP280;56298;49.246;9.410;2024-03-17T03:27:07;100105.38;;;4.48
69186;BMP280;56298;49.246;9.410;2024-03-17T03:29:33;100103.94;;;4.31
69186;BMP280;56298;49.246;9.410;2024-03-17T03:31:59;100105.28;;;4.34
69186;BMP280;56298;49.246;9.410;2024-03-17T03:34:24;100106.50;;;4.22
69186;BMP280;56298;49.246;9.410;2024-03-17T03:36:49;100106.16;;;4.29
69186;BMP280;56298;49.246;9.410;2024-03-17T03:39:14;100103.22;;;4.25
69186;BMP280;56298;49.246;9.410;2024-03-17T03:41:39;100109.50;;;4.21
69186;BMP280;56298;49.246;9.410;2024-03-17T03:44:05;100107.75;;;4.30
69186;BMP280;56298;49.246;9.410;2024-03-17T03:46:30;100104.88;;;4.21
69186;BMP280;56298;49.246;9.410;2024-03-17T03:48:55;100099.50;;;4.16
69186;BMP280;56298;49.246;9.410;2024-03-17T03:51:21;100100.81;;;4.19
69186;BMP280;56298;49.246;9.410;2024-03-17T03:53:46;100097.72;;;4.06
69186;BMP280;56298;49.246;9.410;2024-03-17T03:56:11;100105.94;;;4.01
69186;BMP280;56298;49.246;9.410;2024-03-17T03:58:38;100101.38;;;3.91
69186;BMP280;56298;49.246;9.410;2024-03-17T04:01:06;100096.56;;;3.83
69186;BMP280;56298;49.246;9.410;2024-03-17T04:03:35;100095.13;;;3.96
69186;BMP280;56298;49.246;9.410;2024-03-17T04:06:04;100105.09;;;4.01
69186;BMP280;56298;49.246;9.410;2024-03-17T04:08:31;100097.84;;;3.91
69186;BMP280;56298;49.246;9.410;2024-03-17T04:10:56;100103.66;;;3.79
69186;BMP280;56298;49.246;9.410;2024-03-17T04:13:22;100099.28;;;3.83
69186;BMP280;56298;49.246;9.410;2024-03-17T04:15:48;100098.78;;;3.81
69186;BMP280;56298;49.246;9.410;2024-03-17T04:18:13;100103.78;;;3.98
69186;BMP280;56298;49.246;9.410;2024-03-17T04:20:41;100102.94;;;4.03
69186;BMP280;56298;49.246;9.410;2024-03-17T04:23:06;100098.72;;;4.16
69186;BMP280;56298;49.246;9.410;2024-03-17T04:25:31;100106.06;;;4.10
69186;BMP280;56298;49.246;9.410;2024-03-17T04:27:57;100107.03;;;4.24
69186;BMP280;56298;49.246;9.410;2024-03-17T04:30:23;100099.41;;;4.02
69186;BMP280;56298;49.246;9.410;2024-03-17T04:32:48;100098.16;;;3.89
69186;BMP280;56298;49.246;9.410;2024-03-17T04:35:13;100103.78;;;3.98
69186;BMP280;56298;49.246;9.410;2024-03-17T04:37:38;100099.41;;;4.02
69186;BMP280;56298;49.246;9.410;2024-03-17T04:40:06;100100.50;;;4.01
69186;BMP280;56298;49.246;9.410;2024-03-17T04:42:34;100102.38;;;4.01
69186;BMP280;56298;49.246;9.410;2024-03-17T04:44:59;100107.75;;;4.06
69186;BMP280;56298;49.246;9.410;2024-03-17T04:47:25;100113.66;;;4.13
69186;BMP280;56298;49.246;9.410;2024-03-17T04:49:50;100108.56;;;4.06
69186;BMP280;56298;49.246;9.410;2024-03-17T04:52:15;100106.19;;;3.99
69186;BMP280;56298;49.246;9.410;2024-03-17T04:54:41;100103.72;;;4.03
69186;BMP280;56298;49.246;9.410;2024-03-17T04:57:08;100109.06;;;4.08
69186;BMP280;56298;49.246;9.410;2024-03-17T04:59:34;100105.94;;;4.01
69186;BMP280;56298;49.246;9.410;2024-03-17T05:02:03;100111.19;;;3.87
69186;BMP280;56298;49.246;9.410;2024-03-17T05:04:29;100112.38;;;4.05
69186;BMP280;56298;49.246;9.410;2024-03-17T05:06:55;100111.00;;;4.08
69186;BMP280;56298;49.246;9.410;2024-03-17T05:09:20;100107.81;;;4.01
69186;BMP280;56298;49.246;9.410;2024-03-17T05:11:46;100109.66;;;4.05
69186;BMP280;56298;49.246;9.410;2024-03-17T05:14:12;100106.00;;;3.91
69186;BMP280;56298;49.246;9.410;2024-03-17T05:16:37;100096.72;;;3.67
69186;BMP280;56298;49.246;9.410;2024-03-17T05:19:03;100098.59;;;3.72
69186;BMP280;56298;49.246;9.410;2024-03-17T05:21:28;100102.81;;;3.83
69186;BMP280;56298;49.246;9.410;2024-03-17T05:24:00;100096.19;;;3.95
69186;BMP280;56298;49.246;9.410;2024-03-17T05:26:26;100093.38;;;3.81
69186;BMP280;56298;49.246;9.410;2024-03-17T05:28:52;100092.88;;;3.74
69186;BMP280;56298;49.246;9.410;2024-03-17T05:31:18;100094.41;;;3.55
69186;BMP280;56298;49.246;9.410;2024-03-17T05:33:45;100084.41;;;3.45
69186;BMP280;56298;49.246;9.410;2024-03-17T05:36:10;100093.19;;;3.67
69186;BMP280;56298;49.246;9.410;2024-03-17T05:38:36;100090.56;;;3.86
69186;BMP280;56298;49.246;9.410;2024-03-17T05:41:06;100099.22;;;3.88
69186;BMP280;56298;49.246;9.410;2024-03-17T05:43:33;100102.66;;;3.99
69186;BMP280;56298;49.246;9.410;2024-03-17T05:46:02;100101.84;;;4.04
69186;BMP280;56298;49.246;9.410;2024-03-17T05:48:28;100096.03;;;4.10
69186;BMP280;56298;49.246;9.410;2024-03-17T05:50:54;100095.16;;;4.15
69186;BMP280;56298;49.246;9.410;2024-03-17T05:53:20;100103.53;;;4.19
69186;BMP280;56298;49.246;9.410;2024-03-17T05:55:46;100108.47;;;4.17
69186;BMP280;56298;49.246;9.410;2024-03-17T05:58:12;100103.38;;;4.10
69186;BMP280;56298;49.246;9.410;2024-03-17T06:00:39;100102.75;;;4.18
69186;BMP280;56298;49.246;9.410;2024-03-17T06:03:05;100108.78;;;4.10
69186;BMP280;56298;49.246;9.410;2024-03-17T06:05:39;100107.22;;;4.28
69186;BMP280;56298;49.246;9.410;2024-03-17T06:08:06;100098.88;;;4.24
69186;BMP280;56298;49.246;9.410;2024-03-17T06:10:34;100105.38;;;4.48
69186;BMP280;56298;49.246;9.410;2024-03-17T06:13:00;100101.28;;;4.70
69186;BMP280;56298;49.246;9.410;2024-03-17T06:15:26;100102.06;;;4.95
69186;BMP280;56298;49.246;9.410;2024-03-17T06:17:52;100103.75;;;4.90
69186;BMP280;56298;49.246;9.410;2024-03-17T06:20:22;100098.09;;;5.06
69186;BMP280;56298;49.246;9.410;2024-03-17T06:22:49;100085.53;;;5.43
69186;BMP280;56298;49.246;9.410;2024-03-17T06:25:14;100092.78;;;5.67
69186;BMP280;56298;49.246;9.410;2024-03-17T06:27:39;100097.75;;;5.93
69186;BMP280;56298;49.246;9.410;2024-03-17T06:30:05;100097.03;;;6.29
69186;BMP280;56298;49.246;9.410;2024-03-17T06:32:32;100090.09;;;6.60
69186;BMP280;56298;49.246;9.410;2024-03-17T06:34:58;100093.59;;;6.89
69186;BMP280;56298;49.246;9.410;2024-03-17T06:37:23;100084.66;;;7.43
69186;BMP280;56298;49.246;9.410;2024-03-17T06:39:49;100087.75;;;7.90
69186;BMP280;56298;49.246;9.410;2024-03-17T06:42:14;100086.38;;;8.02
69186;BMP280;56298;49.246;9.410;2024-03-17T06:44:40;100088.44;;;7.96
69186;BMP280;56298;49.246;9.410;2024-03-17T06:47:05;100087.16;;;8.02
69186;BMP280;56298;49.246;9.410;2024-03-17T06:49:31;100085.16;;;8.52
69186;BMP280;56298;49.246;9.410;2024-03-17T06:51:56;100080.69;;;8.56
69186;BMP280;56298;49.246;9.410;2024-03-17T06:54:21;100078.75;;;8.83
69186;BMP280;56298;49.246;9.410;2024-03-17T06:56:47;100078.81;;;9.40
69186;BMP280;56298;49.246;9.410;2024-03-17T06:59:12;100081.28;;;10.01
69186;BMP280;56298;49.246;9.410;2024-03-17T07:01:37;100082.72;;;10.50
69186;BMP280;56298;49.246;9.410;2024-03-17T07:04:03;100080.25;;;10.91
69186;BMP280;56298;49.246;9.410;2024-03-17T07:06:28;100079.47;;;11.24
69186;BMP280;56298;49.246;9.410;2024-03-17T07:08:54;100085.28;;;11.23
69186;BMP280;56298;49.246;9.410;2024-03-17T07:11:20;100078.84;;;11.19
69186;BMP280;56298;49.246;9.410;2024-03-17T07:13:48;100082.88;;;11.21
69186;BMP280;56298;49.246;9.410;2024-03-17T07:16:16;100081.50;;;11.15
69186;BMP280;56298;49.246;9.410;2024-03-17T07:18:41;100082.44;;;10.98
69186;BMP280;56298;49.246;9.410;2024-03-17T07:21:08;100069.41;;;10.61
69186;BMP280;56298;49.246;9.410;2024-03-17T07:23:36;100082.22;;;10.69
69186;BMP280;56298;49.246;9.410;2024-03-17T07:26:02;100092.53;;;10.73
69186;BMP280;56298;49.246;9.410;2024-03-17T07:28:30;100093.66;;;10.93
69186;BMP280;56298;49.246;9.410;2024-03-17T07:30:57;100092.47;;;11.27
69186;BMP280;56298;49.246;9.410;2024-03-17T07:33:23;100090.09;;;11.38
69186;BMP280;56298;49.246;9.410;2024-03-17T07:35:56;100085.31;;;11.02
69186;BMP280;56298;49.246;9.410;2024-03-17T07:38:23;100091.59;;;10.90
69186;BMP280;56298;49.246;9.410;2024-03-17T07:43:28;100083.91;;;12.04
69186;BMP280;56298;49.246;9.410;2024-03-17T07:46:05;100079.09;;;12.42
69186;BMP280;56298;49.246;9.410;2024-03-17T07:48:32;100080.59;;;12.80
69186;BMP280;56298;49.246;9.410;2024-03-17T07:50:59;100080.31;;;12.85
69186;BMP280;56298;49.246;9.410;2024-03-17T07:53:37;100075.75;;;12.77
69186;BMP280;56298;49.246;9.410;2024-03-17T07:56:04;100082.19;;;12.97
69186;BMP280;56298;49.246;9.410;2024-03-17T07:58:31;100088.03;;;13.24
69186;BMP280;56298;49.246;9.410;2024-03-17T08:01:00;100085.97;;;13.37
69186;BMP280;56298;49.246;9.410;2024-03-17T08:03:28;100088.28;;;13.87
69186;BMP280;56298;49.246;9.410;2024-03-17T08:05:53;100081.78;;;13.95
69186;BMP280;56298;49.246;9.410;2024-03-17T08:08:19;100079.06;;;13.99
69186;BMP280;56298;49.246;9.410;2024-03-17T08:10:45;100076.22;;;13.75
69186;BMP280;56298;49.246;9.410;2024-03-17T08:13:13;100079.63;;;13.68
69186;BMP280;56298;49.246;9.410;2024-03-17T08:15:41;100071.53;;;13.76
69186;BMP280;56298;49.246;9.410;2024-03-17T08:18:06;100066.81;;;13.60
69186;BMP280;56298;49.246;9.410;2024-03-17T08:20:36;100068.00;;;13.43
69186;BMP280;56298;49.246;9.410;2024-03-17T08:23:01;100073.41;;;13.56
69186;BMP280;56298;49.246;9.410;2024-03-17T08:25:27;100058.59;;;13.80
69186;BMP280;56298;49.246;9.410;2024-03-17T08:27:52;100055.78;;;13.76
69186;BMP280;56298;49.246;9.410;2024-03-17T08:30:17;100056.34;;;13.86
69186;BMP280;56298;49.246;9.410;2024-03-17T08:32:42;100054.69;;;13.81
69186;BMP280;56298;49.246;9.410;2024-03-17T08:35:08;100056.88;;;13.56
69186;BMP280;56298;49.246;9.410;2024-03-17T08:37:36;100054.41;;;13.18
69186;BMP280;56298;49.246;9.410;2024-03-17T08:40:01;100052.91;;;13.21
69186;BMP280;56298;49.246;9.410;2024-03-17T08:42:27;100052.63;;;13.42
69186;BMP280;56298;49.246;9.410;2024-03-17T08:44:52;100056.41;;;13.70
69186;BMP280;56298;49.246;9.410;2024-03-17T08:47:18;100050.28;;;13.96
69186;BMP280;56298;49.246;9.410;2024-03-17T08:49:43;100054.72;;;14.01
69186;BMP280;56298;49.246;9.410;2024-03-17T08:52:08;100065.66;;;14.17
69186;BMP280;56298;49.246;9.410;2024-03-17T08:54:34;100069.72;;;14.43
69186;BMP280;56298;49.246;9.410;2024-03-17T08:56:59;100065.06;;;14.66
69186;BMP280;56298;49.246;9.410;2024-03-17T08:59:24;100061.22;;;14.71
69186;BMP280;56298;49.246;9.410;2024-03-17T09:01:49;100056.34;;;14.88
69186;BMP280;56298;49.246;9.410;2024-03-17T09:04:15;100054.66;;;14.79
69186;BMP280;56298;49.246;9.410;2024-03-17T09:06:40;100050.91;;;15.15
69186;BMP280;56298;49.246;9.410;2024-03-17T09:09:07;100052.47;;;15.16
69186;BMP280;56298;49.246;9.410;2024-03-17T09:11:33;100046.81;;;15.32
69186;BMP280;56298;49.246;9.410;2024-03-17T09:13:58;100051.91;;;15.26
69186;BMP280;56298;49.246;9.410;2024-03-17T09:16:24;100048.44;;;15.63
69186;BMP280;56298;49.246;9.410;2024-03-17T09:18:50;100040.44;;;15.85
69186;BMP280;56298;49.246;9.410;2024-03-17T09:21:15;100036.13;;;15.88
69186;BMP280;56298;49.246;9.410;2024-03-17T09:23:44;100031.84;;;15.90
69186;BMP280;56298;49.246;9.410;2024-03-17T09:26:10;100035.03;;;15.92
69186;BMP280;56298;49.246;9.410;2024-03-17T09:28:38;100031.50;;;15.95
69186;BMP280;56298;49.246;9.410;2024-03-17T09:31:03;100031.97;;;16.01
69186;BMP280;56298;49.246;9.410;2024-03-17T09:33:31;100027.41;;;15.86
69186;BMP280;56298;49.246;9.410;2024-03-17T09:36:01;100028.19;;;15.86
69186;BMP280;56298;49.246;9.410;2024-03-17T09:38:28;100015.28;;;15.94
69186;BMP280;56298;49.246;9.410;2024-03-17T09:40:53;100025.75;;;15.77
69186;BMP280;56298;49.246;9.410;2024-03-17T09:43:20;100032.94;;;16.16
69186;BMP280;56298;49.246;9.410;2024-03-17T09:45:49;100032.47;;;16.10
69186;BMP280;56298;49.246;9.410;2024-03-17T09:48:16;100023.00;;;16.53
69186;BMP280;56298;49.246;9.410;2024-03-17T09:51:17;100016.91;;;16.78
69186;BMP280;56298;49.246;9.410;2024-03-17T09:53:43;100021.78;;;16.95
69186;BMP280;56298;49.246;9.410;2024-03-17T09:56:12;100018.53;;;16.86
69186;BMP280;56298;49.246;9.410;2024-03-17T09:58:38;100030.41;;;16.83
69186;BMP280;56298;49.246;9.410;2024-03-17T10:01:04;100030.72;;;16.74
69186;BMP280;56298;49.246;9.410;2024-03-17T10:03:46;100031.13;;;17.32
69186;BMP280;56298;49.246;9.410;2024-03-17T10:06:17;100018.38;;;17.13
69186;BMP280;56298;49.246;9.410;2024-03-17T10:08:46;100016.03;;;17.19
69186;BMP280;56298;49.246;9.410;2024-03-17T10:11:13;100019.91;;;17.07
69186;BMP280;56298;49.246;9.410;2024-03-17T10:13:40;100008.69;;;16.92
69186;BMP280;56298;49.246;9.410;2024-03-17T10:16:06;100012.75;;;17.06
69186;BMP280;56298;49.246;9.410;2024-03-17T10:18:31;100015.59;;;17.13
69186;BMP280;56298;49.246;9.410;2024-03-17T10:20:57;100027.53;;;17.24
69186;BMP280;56298;49.246;9.410;2024-03-17T10:23:24;100023.72;;;16.91
69186;BMP280;56298;49.246;9.410;2024-03-17T10:25:49;100017.72;;;16.82
69186;BMP280;56298;49.246;9.410;2024-03-17T10:28:16;100024.69;;;17.10
69186;BMP280;56298;49.246;9.410;2024-03-17T10:31:04;100025.09;;;17.12
69186;BMP280;56298;49.246;9.410;2024-03-17T10:33:29;100007.28;;;17.13
69186;BMP280;56298;49.246;9.410;2024-03-17T10:35:58;100005.16;;;16.92
69186;BMP280;56298;49.246;9.410;2024-03-17T10:38:25;100009.16;;;17.02
69186;BMP280;56298;49.246;9.410;2024-03-17T10:40:52;100012.56;;;17.36
69186;BMP280;56298;49.246;9.410;2024-03-17T10:43:17;100008.56;;;17.34
69186;BMP280;56298;49.246;9.410;2024-03-17T10:45:43;100016.84;;;17.26
69186;BMP280;56298;49.246;9.410;2024-03-17T10:48:08;100017.03;;;17.59
69186;BMP280;56298;49.246;9.410;2024-03-17T10:50:39;100014.69;;;17.65
69186;BMP280;56298;49.246;9.410;2024-03-17T10:53:06;100018.31;;;17.80
69186;BMP280;56298;49.246;9.410;2024-03-17T10:55:45;100016.31;;;17.84
69186;BMP280;56298;49.246;9.410;2024-03-17T10:58:31;100014.19;;;17.41
69186;BMP280;56298;49.246;9.410;2024-03-17T11:00:58;100014.63;;;17.47
69186;BMP280;56298;49.246;9.410;2024-03-17T11:03:24;100016.25;;;17.59
69186;BMP280;56298;49.246;9.410;2024-03-17T11:05:49;100017.91;;;17.81
69186;BMP280;56298;49.246;9.410;2024-03-17T11:08:17;100015.13;;;17.81
69186;BMP280;56298;49.246;9.410;2024-03-17T11:10:50;100015.94;;;17.85
69186;BMP280;56298;49.246;9.410;2024-03-17T11:13:33;100016.38;;;17.91
69186;BMP280;56298;49.246;9.410;2024-03-17T11:16:00;100004.50;;;18.02
69186;BMP280;56298;49.246;9.410;2024-03-17T11:18:33;100005.94;;;17.55
69186;BMP280;56298;49.246;9.410;2024-03-17T11:23:55;100001.34;;;18.03
69186;BMP280;56298;49.246;9.410;2024-03-17T11:26:26;99996.22;;;18.12
69186;BMP280;56298;49.246;9.410;2024-03-17T11:28:52;99998.97;;;18.09
69186;BMP280;56298;49.246;9.410;2024-03-17T11:31:41;99985.50;;;18.14
69186;BMP280;56298;49.246;9.410;2024-03-17T11:34:26;99997.00;;;18.24
69186;BMP280;56298;49.246;9.410;2024-03-17T11:36:53;99989.50;;;18.42
69186;BMP280;56298;49.246;9.410;2024-03-17T11:39:19;99988.69;;;18.67
69186;BMP280;56298;49.246;9.410;2024-03-17T11:41:49;99985.53;;;18.54
69186;BMP280;56298;49.246;9.410;2024-03-17T11:47:05;99974.41;;;18.94
69186;BMP280;56298;49.246;9.410;2024-03-17T11:49:40;99971.19;;;18.92
69186;BMP280;56298;49.246;9.410;2024-03-17T11:54:38;99966.81;;;18.98
69186;BMP280;56298;49.246;9.410;2024-03-17T11:57:06;99968.84;;;18.83
69186;BMP280;56298;49.246;9.410;2024-03-17T11:59:32;99959.72;;;18.54
69186;BMP280;56298;49.246;9.410;2024-03-17T12:01:58;99960.91;;;18.13
69186;BMP280;56298;49.246;9.410;2024-03-17T12:04:24;99954.50;;;17.91
69186;BMP280;56298;49.246;9.410;2024-03-17T12:09:30;99954.03;;;17.60
69186;BMP280;56298;49.246;9.410;2024-03-17T12:12:03;99953.66;;;17.65
69186;BMP280;56298;49.246;9.410;2024-03-17T12:14:30;99952.09;;;17.78
69186;BMP280;56298;49.246;9.410;2024-03-17T12:16:58;99946.53;;;17.71
69186;BMP280;56298;49.246;9.410;2024-03-17T12:19:24;99941.75;;;17.64
69186;BMP280;56298;49.246;9.410;2024-03-17T12:21:54;99939.41;;;17.74
69186;BMP280;56298;49.246;9.410;2024-03-17T12:24:24;99939.88;;;18.01
69186;BMP280;56298;49.246;9.410;2024-03-17T12:26:52;99944.22;;;17.95
69186;BMP280;56298;49.246;9.410;2024-03-17T12:29:26;99943.78;;;17.85
69186;BMP280;56298;49.246;9.410;2024-03-17T12:31:56;99941.84;;;17.86
69186;BMP280;56298;49.246;9.410;2024-03-17T12:34:25;99942.19;;;17.88
69186;BMP280;56298;49.246;9.410;2024-03-17T12:36:52;99938.69;;;18.20
69186;BMP280;56298;49.246;9.410;2024-03-17T12:39:28;99941.47;;;17.98
69186;BMP280;56298;49.246;9.410;2024-03-17T12:42:11;99945.00;;;17.99
69186;BMP280;56298;49.246;9.410;2024-03-17T12:44:40;99936.34;;;18.08
69186;BMP280;56298;49.246;9.410;2024-03-17T12:47:14;99930.66;;;17.64
69186;BMP280;56298;49.246;9.410;2024-03-17T12:49:44;99929.53;;;17.80
69186;BMP280;56298;49.246;9.410;2024-03-17T12:52:17;99932.31;;;17.87
69186;BMP280;56298;49.246;9.410;2024-03-17T12:54:42;99920.03;;;17.99
69186;BMP280;56298;49.246;9.410;2024-03-17T12:57:15;99921.22;;;17.94
69186;BMP280;56298;49.246;9.410;2024-03-17T12:59:59;99927.19;;;18.07
69186;BMP280;56298;49.246;9.410;2024-03-17T13:02:45;99921.25;;;18.05
69186;BMP280;56298;49.246;9.410;2024-03-17T13:05:17;99922.81;;;17.92
69186;BMP280;56298;49.246;9.410;2024-03-17T13:07:43;99915.28;;;17.92
69186;BMP280;56298;49.246;9.410;2024-03-17T13:10:17;99908.94;;;17.92
69186;BMP280;56298;49.246;9.410;2024-03-17T13:12:44;99900.56;;;17.70
69186;BMP280;56298;49.246;9.410;2024-03-17T13:15:12;99903.31;;;17.63
69186;BMP280;56298;49.246;9.410;2024-03-17T13:17:38;99902.16;;;17.78
69186;BMP280;56298;49.246;9.410;2024-03-17T13:20:05;99893.88;;;17.93
69186;BMP280;56298;49.246;9.410;2024-03-17T13:22:34;99898.22;;;17.94
69186;BMP280;56298;49.246;9.410;2024-03-17T13:24:59;99892.69;;;18.01
69186;BMP280;56298;49.246;9.410;2024-03-17T13:27:24;99899.41;;;17.89
69186;BMP280;56298;49.246;9.410;2024-03-17T13:29:50;99895.03;;;17.66
69186;BMP280;56298;49.246;9.410;2024-03-17T13:32:15;99894.66;;;17.90
69186;BMP280;56298;49.246;9.410;2024-03-17T13:34:42;99889.88;;;17.83
69186;BMP280;56298;49.246;9.410;2024-03-17T13:37:07;99888.72;;;17.88
69186;BMP280;56298;49.246;9.410;2024-03-17T13:39:33;99894.41;;;17.10
69186;BMP280;56298;49.246;9.410;2024-03-17T13:41:59;99890.81;;;17.06
69186;BMP280;56298;49.246;9.410;2024-03-17T13:44:32;99896.66;;;16.86
69186;BMP280;56298;49.246;9.410;2024-03-17T13:46:58;99879.22;;;16.82
69186;BMP280;56298;49.246;9.410;2024-03-17T13:49:24;99885.72;;;16.48
69186;BMP280;56298;49.246;9.410;2024-03-17T13:51:49;99880.78;;;16.76
69186;BMP280;56298;49.246;9.410;2024-03-17T13:54:15;99885.94;;;16.81
69186;BMP280;56298;49.246;9.410;2024-03-17T13:56:40;99882.94;;;17.11
69186;BMP280;56298;49.246;9.410;2024-03-17T13:59:05;99884.88;;;17.04
69186;BMP280;56298;49.246;9.410;2024-03-17T14:01:30;99874.94;;;16.95
69186;BMP280;56298;49.246;9.410;2024-03-17T14:03:56;99872.47;;;16.79
69186;BMP280;56298;49.246;9.410;2024-03-17T14:06:21;99879.28;;;16.89
69186;BMP280;56298;49.246;9.410;2024-03-17T14:08:46;99868.44;;;16.66
69186;BMP280;56298;49.246;9.410;2024-03-17T14:11:11;99864.69;;;17.00
69186;BMP280;56298;49.246;9.410;2024-03-17T14:13:38;99861.53;;;17.05
69186;BMP280;56298;49.246;9.410;2024-03-17T14:16:03;99854.91;;;17.31
69186;BMP280;56298;49.246;9.410;2024-03-17T14:18:31;99856.84;;;17.23